Time;durP1;ratioP1;P1;durP2;ratioP2;P2;SDS_P1;SDS_P2;PMS_P1;PMS_P2;Temp;Humidity;BMP_temperature;BMP_pressure;BME280_temperature;BME280_humidity;BME280_pressure;Samples;Min_cycle;Max_cycle;Signal;HPM_P1;HPM_P2
2022/08/30 00:02:50;;;;;;;4.80;2.50;;;;;;;22.97;37.38;100769.88;4106893;28;20517;-66
2022/08/30 00:04:54;;;;;;;;;;;;;;;22.82;37.79;100770.34;4114326;28;20488;-66
2022/08/30 00:06:56;;;;;;;5.50;2.30;;;;;;;22.88;37.91;100766.63;4113445;28;19922;-67
2022/08/30 00:08:59;;;;;;;5.35;2.85;;;;;;;22.95;37.42;100765.50;4113238;28;20062;-67
2022/08/30 00:11:04;;;;;;;12.27;3.17;;;;;;;23.06;37.24;100762.53;4111330;28;20077;-67
2022/08/30 00:13:09;;;;;;;;;;;;;;;22.87;37.52;100771.06;4115400;28;20097;-67
2022/08/30 00:15:13;;;;;;;6.68;2.70;;;;;;;22.86;37.65;100769.34;4113814;28;19925;-67
2022/08/30 00:17:18;;;;;;;6.13;3.30;;;;;;;22.82;37.62;100768.56;4114183;28;20046;-67
2022/08/30 00:19:22;;;;;;;8.40;3.35;;;;;;;22.86;37.46;100769.34;4112432;28;20030;-66
2022/08/30 00:21:25;;;;;;;5.30;2.47;;;;;;;22.80;37.62;100767.75;4114197;28;20042;-66
2022/08/30 00:23:28;;;;;;;5.63;2.30;;;;;;;22.79;37.92;100771.31;4112714;28;20514;-66
2022/08/30 00:25:32;;;;;;;4.13;2.70;;;;;;;22.81;37.99;100764.19;4111420;28;20097;-66
2022/08/30 00:27:35;;;;;;;5.28;2.65;;;;;;;22.84;37.51;100769.38;4097917;28;20067;-67
2022/08/30 00:29:37;;;;;;;5.18;2.08;;;;;;;22.85;37.96;100767.59;4114390;28;20042;-66
2022/08/30 00:31:40;;;;;;;6.25;2.85;;;;;;;22.88;37.79;100766.63;4113941;28;20403;-66
2022/08/30 00:33:43;;;;;;;8.68;3.30;;;;;;;22.84;38.10;100764.09;4115430;28;20471;-66
2022/08/30 00:35:48;;;;;;;4.53;2.50;;;;;;;22.89;37.95;100765.72;4115928;28;20126;-66
2022/08/30 00:37:51;;;;;;;5.70;2.75;;;;;;;22.91;37.74;100770.06;4112401;28;20409;-67
2022/08/30 00:39:54;;;;;;;10.57;3.50;;;;;;;22.89;37.69;100766.56;4116436;28;20484;-67
2022/08/30 00:41:57;;;;;;;7.63;2.78;;;;;;;22.84;37.86;100773.81;4116918;28;20119;-66
2022/08/30 00:44:00;;;;;;;7.60;2.25;;;;;;;22.76;38.53;100763.44;4116592;28;20117;-66
2022/08/30 00:46:07;;;;;;;4.38;2.30;;;;;;;22.74;38.71;100772.38;4116115;28;20035;-66
2022/08/30 00:48:10;;;;;;;5.63;2.45;;;;;;;22.73;38.56;100779.44;4116899;28;20035;-66
2022/08/30 00:50:16;;;;;;;5.93;2.70;;;;;;;22.72;38.58;100763.59;4117216;28;20046;-66
2022/08/30 00:52:22;;;;;;;4.95;2.10;;;;;;;22.64;38.84;100777.09;4115178;28;20101;-66
2022/08/30 00:54:26;;;;;;;5.80;2.95;;;;;;;22.69;38.46;100769.00;4116399;28;20496;-67
2022/08/30 00:56:30;;;;;;;5.88;3.15;;;;;;;22.66;38.71;100776.13;4117616;28;20121;-66
2022/08/30 00:58:37;;;;;;;6.47;2.75;;;;;;;22.67;38.66;100769.91;4115018;28;20045;-66
2022/08/30 01:00:40;;;;;;;3.15;2.28;;;;;;;22.66;38.58;100769.94;4115800;28;20039;-67
2022/08/30 01:02:43;;;;;;;5.88;2.55;;;;;;;22.62;39.05;100771.00;4116784;28;20043;-66
2022/08/30 01:04:50;;;;;;;5.55;2.53;;;;;;;22.63;38.91;100775.34;4115456;28;20094;-67
2022/08/30 01:06:54;;;;;;;10.27;3.10;;;;;;;22.61;38.65;100771.91;4105896;28;20047;-67
2022/08/30 01:08:58;;;;;;;5.57;2.80;;;;;;;22.53;39.31;100780.09;4099492;28;20042;-66
2022/08/30 01:11:04;;;;;;;4.20;2.70;;;;;;;22.56;39.43;100782.63;4114556;28;20053;-66
2022/08/30 01:13:09;;;;;;;8.65;2.95;;;;;;;22.58;39.77;100778.16;4116525;28;20043;-66
2022/08/30 01:15:14;;;;;;;6.53;2.55;;;;;;;22.69;38.97;100772.50;4116696;28;20114;-67
2022/08/30 01:17:18;;;;;;;7.85;3.05;;;;;;;22.63;38.91;100770.94;4116379;28;20171;-66
2022/08/30 01:19:35;;;;;;;6.47;2.95;;;;;;;22.59;39.14;100768.41;4115555;28;20081;-68
2022/08/30 01:21:42;;;;;;;7.30;2.83;;;;;;;22.53;39.25;100774.78;4114939;28;20408;-67
2022/08/30 01:24:08;;;;;;;6.35;2.72;;;;;;;22.44;39.73;100777.69;4109008;28;20443;-66
2022/08/30 01:26:13;;;;;;;8.10;2.80;;;;;;;22.43;39.75;100774.19;4110230;28;20085;-66
2022/08/30 01:28:22;;;;;;;6.38;3.53;;;;;;;22.45;39.97;100774.16;4115934;28;20047;-66
2022/08/30 01:30:25;;;;;;;7.97;3.33;;;;;;;22.42;39.91;100777.75;4130232;28;20046;-66
2022/08/30 01:32:29;;;;;;;7.78;2.75;;;;;;;22.37;40.15;100773.50;4116373;28;20039;-66
2022/08/30 01:34:32;;;;;;;10.60;2.87;;;;;;;22.33;40.13;100771.84;4114114;28;20440;-66
2022/08/30 01:36:37;;;;;;;10.30;3.40;;;;;;;22.30;40.31;100773.66;4116115;28;20357;-66
2022/08/30 01:38:49;;;;;;;7.38;3.22;;;;;;;22.27;40.38;100773.75;4115811;28;20130;-66
2022/08/30 01:41:00;;;;;;;7.68;3.15;;;;;;;22.27;40.60;100779.03;4109292;28;20054;-67
2022/08/30 01:43:03;;;;;;;7.15;2.92;;;;;;;22.26;40.52;100782.59;4114132;28;20045;-66
2022/08/30 01:45:08;;;;;;;5.93;3.25;;;;;;;22.22;40.80;100777.44;4115399;28;20118;-66
2022/08/30 01:47:11;;;;;;;7.15;3.13;;;;;;;22.24;40.37;100771.19;4116935;28;20035;-66
2022/08/30 01:49:17;;;;;;;5.78;2.92;;;;;;;22.23;40.19;100774.75;4099054;29;20045;-66
2022/08/30 01:51:29;;;;;;;;;;;;;;;22.00;40.49;100774.53;4116681;28;20045;-66
2022/08/30 01:53:33;;;;;;;6.43;3.35;;;;;;;21.96;40.70;100777.28;4116276;28;20505;-66
2022/08/30 01:55:37;;;;;;;5.93;2.88;;;;;;;21.91;40.85;100778.31;4116190;28;20560;-66
2022/08/30 01:57:41;;;;;;;;;;;;;;;21.86;40.81;100774.91;4116289;28;20031;-65
2022/08/30 01:59:46;;;;;;;9.85;2.80;;;;;;;21.83;40.80;100775.88;4115557;28;19926;-65
2022/08/30 02:01:49;;;;;;;13.40;2.92;;;;;;;21.76;41.20;100769.03;4116190;28;20129;-65
2022/08/30 02:03:55;;;;;;;7.80;2.60;;;;;;;21.82;41.51;100779.44;4115577;28;20058;-65
2022/08/30 02:06:03;;;;;;;6.70;3.10;;;;;;;21.90;41.37;100779.22;4116751;28;20504;-65
2022/08/30 02:08:06;;;;;;;6.32;2.67;;;;;;;21.92;41.09;100783.56;4116816;28;20493;-65
2022/08/30 02:10:10;;;;;;;7.97;3.47;;;;;;;21.98;41.00;100774.59;4113735;28;20065;-65
2022/08/30 02:12:14;;;;;;;4.88;2.63;;;;;;;21.96;40.89;100785.22;4113565;28;20428;-65
2022/08/30 02:14:18;;;;;;;9.43;2.55;;;;;;;21.90;40.99;100788.03;4115070;28;20062;-65
2022/08/30 02:16:24;;;;;;;8.80;2.90;;;;;;;21.82;41.57;100786.53;4115563;28;20079;-65
2022/08/30 02:18:27;;;;;;;6.85;2.85;;;;;;;21.80;40.82;100781.28;4113433;28;20026;-65
2022/08/30 02:20:30;;;;;;;8.88;3.20;;;;;;;21.74;40.92;100777.00;4115394;28;20039;-65
2022/08/30 02:22:33;;;;;;;5.82;3.03;;;;;;;21.75;41.21;100769.94;4114643;28;20046;-65
2022/08/30 02:24:36;;;;;;;7.40;3.20;;;;;;;21.74;41.19;100774.38;4115099;28;20330;-65
2022/08/30 02:26:39;;;;;;;9.13;2.83;;;;;;;21.71;40.97;100773.56;4115754;28;20043;-65
2022/08/30 02:28:43;;;;;;;8.43;3.20;;;;;;;21.70;41.06;100767.41;4115507;28;20512;-65
2022/08/30 02:30:53;;;;;;;9.80;2.92;;;;;;;21.61;41.12;100763.22;4107612;28;20122;-65
2022/08/30 02:32:56;;;;;;;6.97;3.03;;;;;;;21.60;41.00;100760.63;4115158;28;20038;-66
2022/08/30 02:34:59;;;;;;;10.52;3.08;;;;;;;;;;4096923;29;20118;-65
2022/08/30 02:37:03;;;;;;;5.05;2.60;;;;;;;21.49;41.20;100776.72;4115142;28;20047;-66
2022/08/30 02:39:06;;;;;;;5.55;2.70;;;;;;;21.35;41.39;100771.81;4115504;28;20130;-66
2022/08/30 02:41:09;;;;;;;5.75;3.13;;;;;;;21.34;41.50;100772.72;4114406;28;20051;-66
2022/08/30 02:43:12;;;;;;;8.68;3.35;;;;;;;21.30;41.77;100770.19;4115228;28;20039;-66
2022/08/30 02:45:15;;;;;;;5.82;2.83;;;;;;;21.36;41.80;100765.63;4097147;28;20042;-66
2022/08/30 02:47:22;;;;;;;12.30;3.10;;;;;;;21.22;41.99;100765.97;4114317;28;20043;-66
2022/08/30 02:49:25;;;;;;;6.35;2.50;;;;;;;21.08;42.53;100763.69;4097950;28;20043;-66
2022/08/30 02:51:37;;;;;;;7.72;3.00;;;;;;;21.16;42.49;100766.13;4114140;28;20042;-66
2022/08/30 02:53:42;;;;;;;5.22;2.78;;;;;;;21.19;42.46;100754.63;4128572;28;20038;-66
2022/08/30 02:55:45;;;;;;;5.03;2.70;;;;;;;21.21;42.74;100758.94;4115277;28;20500;-66
2022/08/30 02:57:48;;;;;;;7.50;3.03;;;;;;;21.28;42.59;100760.50;4114910;28;20129;-65
2022/08/30 02:59:52;;;;;;;9.73;2.97;;;;;;;21.34;42.12;100758.63;4111021;28;20441;-66
2022/08/30 03:01:55;;;;;;;5.80;2.57;;;;;;;21.27;42.35;100745.59;4112697;28;20054;-65
2022/08/30 03:03:59;;;;;;;7.28;2.97;;;;;;;21.34;42.16;100753.34;4113990;28;20451;-65
2022/08/30 03:06:03;;;;;;;9.38;3.20;;;;;;;21.24;42.50;100750.06;4114816;28;20046;-65
2022/08/30 03:08:06;;;;;;;7.72;2.85;;;;;;;21.20;42.87;100753.69;4108626;28;20523;-65
2022/08/30 03:10:10;;;;;;;5.25;2.55;;;;;;;21.25;42.90;100750.03;4112903;28;20047;-65
2022/08/30 03:12:15;;;;;;;7.22;3.28;;;;;;;21.33;42.21;100748.97;4114294;28;20059;-66
2022/08/30 03:14:18;;;;;;;6.32;3.03;;;;;;;21.23;42.87;100754.50;4113782;28;20496;-65
2022/08/30 03:16:21;;;;;;;9.13;3.45;;;;;;;21.25;42.89;100754.44;4112530;28;20034;-65
2022/08/30 03:18:27;;;;;;;8.20;3.20;;;;;;;21.30;42.87;100751.69;4113462;28;20077;-65
2022/08/30 03:20:31;;;;;;;5.78;2.80;;;;;;;21.35;42.93;100755.06;4114719;28;20053;-66
2022/08/30 03:22:34;;;;;;;8.38;3.33;;;;;;;21.36;42.40;100746.22;4112474;28;20105;-66
2022/08/30 03:24:37;;;;;;;9.90;3.40;;;;;;;21.30;42.46;100754.31;4110387;28;20043;-66
2022/08/30 03:26:40;;;;;;;9.55;3.00;;;;;;;21.22;42.34;100754.53;4113935;28;20407;-66
2022/08/30 03:28:48;;;;;;;9.80;3.55;;;;;;;21.12;42.71;100745.09;4114676;28;20094;-66
2022/08/30 03:30:51;;;;;;;5.75;3.13;;;;;;;21.00;42.89;100747.13;4113732;28;20039;-66
2022/08/30 03:32:53;;;;;;;5.88;2.80;;;;;;;21.00;42.98;100741.84;4114420;28;20408;-66
2022/08/30 03:34:56;;;;;;;6.88;3.05;;;;;;;20.99;42.77;100741.88;4113162;28;20039;-66
2022/08/30 03:37:01;;;;;;;6.28;3.10;;;;;;;20.93;43.20;100738.47;4108038;28;20038;-66
2022/08/30 03:39:04;;;;;;;7.05;3.65;;;;;;;21.00;43.07;100741.00;4108722;28;20038;-65
2022/08/30 03:41:10;;;;;;;5.78;2.95;;;;;;;20.99;42.90;100741.88;4127095;28;20471;-66
2022/08/30 03:43:13;;;;;;;10.50;3.33;;;;;;;20.98;42.67;100748.06;4107524;28;20061;-62
2022/08/30 03:45:17;;;;;;;7.60;3.58;;;;;;;20.95;42.73;100749.00;4113845;28;20043;-61
2022/08/30 03:47:20;;;;;;;8.40;3.30;;;;;;;20.88;42.70;100745.66;4111383;28;20560;-62
2022/08/30 03:49:27;;;;;;;8.75;3.40;;;;;;;20.82;43.10;100750.22;4112159;28;20497;-61
2022/08/30 03:51:29;;;;;;;7.93;3.40;;;;;;;20.84;42.60;100753.69;4113803;28;20113;-62
2022/08/30 03:53:34;;;;;;;7.95;3.42;;;;;;;20.77;42.93;100749.47;4114068;28;20097;-62
2022/08/30 03:55:37;;;;;;;10.35;3.28;;;;;;;20.64;43.23;100741.78;4114684;28;20034;-62
2022/08/30 03:57:41;;;;;;;4.75;2.78;;;;;;;20.65;43.47;100743.53;4112956;28;20396;-62
2022/08/30 03:59:45;;;;;;;8.48;3.58;;;;;;;20.71;43.69;100747.84;4113012;28;20043;-62
2022/08/30 04:01:48;;;;;;;10.10;4.00;;;;;;;20.69;43.77;100744.34;4114930;28;20047;-62
2022/08/30 04:03:51;;;;;;;8.13;3.35;;;;;;;20.54;44.34;100749.03;4114991;28;20419;-62
2022/08/30 04:05:55;;;;;;;7.30;2.92;;;;;;;20.42;44.76;100749.31;4112927;28;20141;-62
2022/08/30 04:07:58;;;;;;;7.80;3.10;;;;;;;20.34;44.82;100744.22;4131498;28;20046;-62
2022/08/30 04:10:02;;;;;;;7.47;3.50;;;;;;;20.35;44.64;100747.72;4117271;28;20137;-62
2022/08/30 04:12:05;;;;;;;8.75;3.33;;;;;;;20.29;44.60;100748.72;4131952;28;20050;-62
2022/08/30 04:14:08;;;;;;;7.13;3.40;;;;;;;20.32;45.12;100742.50;4116976;28;20034;-61
2022/08/30 04:16:11;;;;;;;11.73;3.22;;;;;;;20.36;44.81;100752.09;4116101;28;20046;-62
2022/08/30 04:18:15;;;;;;;6.43;3.22;;;;;;;20.27;44.87;100757.56;4114305;28;20149;-62
2022/08/30 04:20:18;;;;;;;9.50;2.80;;;;;;;20.23;45.23;100757.63;4116002;28;20039;-63
2022/08/30 04:22:21;;;;;;;11.48;3.47;;;;;;;20.34;44.90;100759.16;4117832;28;20504;-62
2022/08/30 04:24:24;;;;;;;11.40;3.50;;;;;;;20.34;45.16;100759.16;4111751;28;20042;-63
2022/08/30 04:26:29;;;;;;;8.38;3.10;;;;;;;20.31;44.99;100746.03;4117908;28;20053;-62
2022/08/30 04:28:32;;;;;;;9.48;3.80;;;;;;;20.24;45.52;100753.22;4114768;28;20035;-63
2022/08/30 04:30:39;;;;;;;6.47;2.97;;;;;;;20.29;45.09;100764.56;4114192;28;20133;-62
2022/08/30 04:32:42;;;;;;;5.22;2.33;;;;;;;20.42;44.88;100757.25;4114921;28;20045;-62
2022/08/30 04:34:45;;;;;;;10.37;3.60;;;;;;;20.53;44.78;100760.53;4116632;28;20134;-62
2022/08/30 04:36:51;;;;;;;12.93;3.42;;;;;;;20.50;44.86;100757.94;4110253;28;20050;-62
2022/08/30 04:38:54;;;;;;;8.95;3.17;;;;;;;20.38;44.88;100760.84;4107234;28;20508;-62
2022/08/30 04:40:59;;;;;;;6.13;2.97;;;;;;;20.28;44.80;100759.31;4111151;28;20050;-62
2022/08/30 04:43:04;;;;;;;6.23;2.93;;;;;;;20.27;45.12;100768.13;4117897;28;20632;-62
2022/08/30 04:45:09;;;;;;;9.02;3.42;;;;;;;20.39;45.28;100774.00;4117186;28;20481;-62
2022/08/30 04:47:12;;;;;;;11.50;3.92;;;;;;;20.63;44.60;100770.88;4115950;28;20090;-62
2022/08/30 04:49:15;;;;;;;9.90;3.60;;;;;;;20.57;44.52;100767.47;4118619;28;20550;-62
2022/08/30 04:51:18;;;;;;;8.80;3.72;;;;;;;20.48;44.91;100778.22;4117571;28;20035;-62
2022/08/30 04:53:22;;;;;;;11.65;3.97;;;;;;;20.34;45.12;100773.25;4117090;28;20496;-62
2022/08/30 04:55:25;;;;;;;9.88;3.50;;;;;;;20.27;45.10;100768.13;4117575;28;20038;-62
2022/08/30 04:57:28;;;;;;;8.85;3.45;;;;;;;20.40;45.02;100777.53;4117613;28;20054;-62
2022/08/30 04:59:33;;;;;;;8.65;3.35;;;;;;;20.45;44.77;100780.94;4118679;28;20061;-62
2022/08/30 05:01:36;;;;;;;6.53;3.30;;;;;;;20.51;45.26;100777.28;4113045;28;20057;-62
2022/08/30 05:03:47;;;;;;;7.00;3.25;;;;;;;20.58;45.42;100786.81;4113578;28;20053;-62
2022/08/30 05:05:51;;;;;;;11.05;3.33;;;;;;;20.57;44.82;100783.31;4131669;28;20113;-62
2022/08/30 05:07:54;;;;;;;8.63;3.45;;;;;;;20.58;44.64;100785.03;4114911;28;20043;-62
2022/08/30 05:09:57;;;;;;;8.15;2.92;;;;;;;20.45;44.43;100782.72;4116825;28;20031;-62
2022/08/30 05:12:00;;;;;;;9.30;3.50;;;;;;;20.34;44.85;100781.19;4115716;28;20543;-62
2022/08/30 05:14:03;;;;;;;11.85;3.67;;;;;;;20.34;44.62;100789.09;4114789;28;20038;-62
2022/08/30 05:16:08;;;;;;;12.85;4.03;;;;;;;20.28;44.92;100783.97;4115544;28;20516;-62
2022/08/30 05:18:11;;;;;;;10.30;3.85;;;;;;;20.18;44.83;100785.91;4114107;28;20515;-62
2022/08/30 05:20:16;;;;;;;13.25;3.97;;;;;;;20.09;45.18;100786.06;4115005;28;20038;-62
2022/08/30 05:22:19;;;;;;;11.32;3.63;;;;;;;20.01;45.10;100793.28;4111680;28;20146;-62
2022/08/30 05:24:22;;;;;;;17.33;3.67;;;;;;;19.85;46.01;100788.28;4110421;28;20508;-62
2022/08/30 05:26:28;;;;;;;16.33;3.80;;;;;;;19.79;45.56;100798.97;4112022;28;20046;-62
2022/08/30 05:28:30;;;;;;;13.55;3.80;;;;;;;19.79;45.97;100798.97;4113403;28;20035;-62
2022/08/30 05:30:35;;;;;;;13.00;3.38;;;;;;;19.64;46.61;100801.84;4112565;28;20129;-62
2022/08/30 05:32:40;;;;;;;14.43;4.28;;;;;;;19.73;46.17;100801.69;4116660;28;20043;-62
2022/08/30 05:34:43;;;;;;;12.30;4.72;;;;;;;19.76;45.70;100816.59;4115144;28;20042;-62
2022/08/30 05:36:46;;;;;;;15.13;4.65;;;;;;;19.76;45.63;100806.91;4122553;28;20046;-62
2022/08/30 05:38:50;;;;;;;10.52;3.75;;;;;;;19.69;45.75;100815.84;4117037;28;20474;-62
2022/08/30 05:40:53;;;;;;;9.20;3.60;;;;;;;19.59;46.10;100811.63;4117742;28;20268;-62
2022/08/30 05:42:56;;;;;;;10.55;3.53;;;;;;;19.60;46.04;100816.00;4114582;28;20039;-62
2022/08/30 05:45:02;;;;;;;9.20;3.13;;;;;;;19.68;45.99;100808.81;4115762;28;20460;-61
2022/08/30 05:47:05;;;;;;;9.52;3.67;;;;;;;19.72;46.15;100813.13;4112517;28;20042;-61
2022/08/30 05:49:09;;;;;;;9.65;3.75;;;;;;;19.82;45.94;100805.97;4115271;28;20041;-61
2022/08/30 05:51:15;;;;;;;14.68;3.92;;;;;;;19.87;45.87;100806.72;4115324;28;20038;-61
2022/08/30 05:53:18;;;;;;;10.98;4.70;;;;;;;19.86;45.68;100803.25;4114244;28;20047;-61
2022/08/30 05:55:22;;;;;;;9.88;4.03;;;;;;;19.92;45.96;100799.63;4114266;28;20047;-61
2022/08/30 05:57:25;;;;;;;14.65;4.20;;;;;;;19.95;45.96;100798.69;4114478;28;20049;-61
2022/08/30 05:59:28;;;;;;;9.48;4.00;;;;;;;19.96;45.82;100800.41;4113807;28;20057;-61
2022/08/30 06:01:32;;;;;;;8.27;3.97;;;;;;;20.02;45.85;100800.31;4114546;28;20047;-61
2022/08/30 06:03:35;;;;;;;15.98;3.92;;;;;;;20.06;45.66;100799.34;4115175;28;20093;-61
2022/08/30 06:05:40;;;;;;;12.30;4.03;;;;;;;19.97;45.75;100796.88;4111250;28;20042;-62
2022/08/30 06:07:43;;;;;;;;;;;;;;;19.96;45.80;100795.13;4114037;28;20551;-62
2022/08/30 06:09:46;;;;;;;14.20;3.92;;;;;;;19.93;45.79;100801.38;4123881;28;19926;-61
2022/08/30 06:11:49;;;;;;;16.98;4.40;;;;;;;19.98;45.72;100799.50;4111636;28;20038;-61
2022/08/30 06:13:53;;;;;;;15.48;4.70;;;;;;;20.02;45.68;100795.03;4111733;28;20512;-61
2022/08/30 06:15:56;;;;;;;16.48;5.70;;;;;;;20.12;46.04;100801.88;4111836;28;20054;-62
2022/08/30 06:18:01;;;;;;;13.65;3.90;;;;;;;20.23;45.57;100799.88;4110795;28;20046;-62
2022/08/30 06:20:05;;;;;;;12.98;4.32;;;;;;;20.30;45.35;100797.13;4112965;28;20039;-62
2022/08/30 06:22:09;;;;;;;20.77;4.97;;;;;;;20.26;45.48;100804.22;4111048;28;20492;-62
2022/08/30 06:24:12;;;;;;;15.60;4.10;;;;;;;20.27;45.27;100813.00;4111778;28;20042;-61
2022/08/30 06:26:16;;;;;;;20.67;4.10;;;;;;;20.22;45.38;100797.25;4112482;28;20455;-61
2022/08/30 06:28:19;;;;;;;17.27;5.07;;;;;;;20.37;45.36;100801.34;4110973;28;20109;-61
2022/08/30 06:30:22;;;;;;;15.57;4.75;;;;;;;20.31;45.43;100801.47;4114673;28;20039;-61
2022/08/30 06:32:25;;;;;;;13.25;4.43;;;;;;;20.31;45.31;100802.38;4114675;28;20423;-61
2022/08/30 06:34:28;;;;;;;17.83;4.72;;;;;;;20.34;45.65;100798.78;4114129;28;20138;-61
2022/08/30 06:36:31;;;;;;;13.70;4.72;;;;;;;20.44;45.31;100795.03;4124517;28;20046;-62
2022/08/30 06:38:36;;;;;;;14.20;4.93;;;;;;;20.42;45.07;100796.00;4110264;28;20085;-62
2022/08/30 06:40:39;;;;;;;22.58;4.68;;;;;;;20.42;45.28;100802.13;4111402;28;20042;-62
2022/08/30 06:42:42;;;;;;;15.48;5.18;;;;;;;20.45;45.04;100798.56;4114740;28;20057;-60
2022/08/30 06:44:45;;;;;;;14.63;4.97;;;;;;;20.54;45.00;100796.56;4108687;28;20043;-62
2022/08/30 06:46:48;;;;;;;20.38;5.15;;;;;;;20.48;45.27;100794.06;4130740;28;20104;-62
2022/08/30 06:48:52;;;;;;;15.18;5.25;;;;;;;20.67;45.13;100801.63;4115232;28;20562;-62
2022/08/30 06:50:58;;;;;;;19.83;5.05;;;;;;;20.56;45.43;100797.44;4108176;28;20038;-62
2022/08/30 06:53:04;;;;;;;20.05;5.60;;;;;;;20.73;44.69;100806.78;4110353;28;20105;-61
2022/08/30 06:55:09;;;;;;;29.35;5.88;;;;;;;20.73;44.96;100806.78;4113704;28;20081;-61
2022/08/30 06:57:13;;;;;;;31.50;5.57;;;;;;;20.75;44.91;100803.19;4114275;28;20043;-61
2022/08/30 06:59:16;;;;;;;23.83;5.13;;;;;;;20.74;44.81;100814.66;4112224;28;20043;-60
2022/08/30 07:01:23;;;;;;;22.52;5.88;;;;;;;20.82;44.80;100809.22;4115390;28;20034;-60
2022/08/30 07:03:29;;;;;;;26.02;5.82;;;;;;;20.78;45.18;100812.84;4112680;28;20063;-59
2022/08/30 07:05:32;;;;;;;20.13;4.95;;;;;;;20.83;45.48;100816.22;4112057;28;20043;-60
2022/08/30 07:07:35;;;;;;;15.07;5.20;;;;;;;20.92;45.05;100820.44;4115450;28;20038;-66
2022/08/30 07:09:42;;;;;;;28.80;6.45;;;;;;;21.09;44.67;100814.78;4113387;28;20554;-67
2022/08/30 07:11:46;;;;;;;17.25;4.15;;;;;;;21.15;44.50;100824.34;4113657;28;20050;-69
2022/08/30 07:13:49;;;;;;;16.98;4.25;;;;;;;21.09;44.94;100833.28;4106291;28;20515;-73
2022/08/30 07:15:52;;;;;;;17.52;5.05;;;;;;;21.27;44.63;100830.19;4113086;28;20042;-67
2022/08/30 07:20:17;;;;;;;15.50;5.03;;;;;;;21.61;43.51;100824.09;4114512;28;20451;-74
2022/08/30 07:22:20;;;;;;;12.60;4.30;;;;;;;21.58;43.48;100826.81;4114631;28;20061;-69
2022/08/30 07:24:23;;;;;;;19.02;4.70;;;;;;;21.58;43.11;100823.28;4115126;28;20035;-70
2022/08/30 07:26:30;;;;;;;10.23;3.60;;;;;;;21.55;43.55;100828.66;4113542;28;20039;-62
2022/08/30 07:28:37;;;;;;;8.00;3.00;;;;;;;21.61;43.04;100825.84;4115598;28;20125;-63
2022/08/30 07:30:41;;;;;;;17.13;4.22;;;;;;;21.70;42.99;100830.91;4112597;28;20027;-61
2022/08/30 07:32:44;;;;;;;9.13;3.20;;;;;;;21.73;42.84;100835.28;4108563;28;20047;-68
2022/08/30 07:34:48;;;;;;;17.15;4.43;;;;;;;21.78;43.10;100833.34;4113665;28;20082;-60
2022/08/30 07:36:53;;;;;;;13.85;3.88;;;;;;;21.81;43.20;100833.28;4112825;28;20134;-62
2022/08/30 07:38:56;;;;;;;11.45;3.80;;;;;;;21.84;43.25;100834.97;4115582;28;20094;-62
2022/08/30 07:41:00;;;;;;;12.98;4.32;;;;;;;22.08;42.88;100830.81;4111252;28;20051;-73
2022/08/30 07:43:02;;;;;;;7.20;2.90;;;;;;;22.09;43.03;100825.47;4097135;29;20050;-73
2022/08/30 07:45:08;;;;;;;7.57;3.30;;;;;;;22.18;42.93;100826.09;4114353;28;20105;-67
2022/08/30 07:47:11;;;;;;;7.10;3.33;;;;;;;22.21;42.84;100831.31;4112314;28;20035;-68
2022/08/30 07:49:14;;;;;;;9.48;3.70;;;;;;;22.30;42.58;100823.97;4112770;28;20041;-65
2022/08/30 07:51:20;;;;;;;10.07;3.60;;;;;;;22.20;42.69;100822.50;4127373;28;20136;-64
2022/08/30 07:53:23;;;;;;;10.25;4.03;;;;;;;22.31;43.04;100828.38;4128165;28;20092;-62
2022/08/30 07:55:26;;;;;;;8.13;3.38;;;;;;;22.39;42.77;100816.72;4114439;28;20065;-62
2022/08/30 07:57:32;;;;;;;11.32;4.15;;;;;;;22.50;42.57;100827.84;4114662;28;20043;-62
2022/08/30 07:59:35;;;;;;;18.95;4.65;;;;;;;22.43;42.91;100823.66;4114207;28;20038;-62
2022/08/30 08:01:39;;;;;;;12.20;3.88;;;;;;;22.47;42.91;100826.19;4112937;28;20416;-62
2022/08/30 08:03:43;;;;;;;12.18;4.25;;;;;;;22.53;42.68;100822.47;4104346;28;20058;-62
2022/08/30 08:05:46;;;;;;;12.55;4.30;;;;;;;22.76;42.22;100823.56;4110644;28;20125;-62
2022/08/30 08:07:49;;;;;;;16.08;4.55;;;;;;;22.79;42.09;100820.81;4109033;28;20382;-62
2022/08/30 08:09:52;;;;;;;10.52;3.88;;;;;;;22.87;40.38;100824.09;4114466;28;20456;-62
2022/08/30 08:11:55;;;;;;;18.15;3.95;;;;;;;22.98;40.21;100824.63;4109623;28;20524;-62
2022/08/30 08:13:58;;;;;;;16.10;4.38;;;;;;;22.89;39.86;100830.22;4126907;28;20583;-62
2022/08/30 08:16:02;;;;;;;13.07;3.83;;;;;;;22.87;39.97;100832.06;4108802;28;20039;-62
2022/08/30 08:18:06;;;;;;;18.20;4.55;;;;;;;22.77;40.39;100827.94;4121682;28;20038;-62
2022/08/30 08:20:09;;;;;;;;;;;;;;;22.58;40.43;100823.19;4113307;28;20094;-62
2022/08/30 08:22:12;;;;;;;9.05;3.47;;;;;;;22.64;40.86;100825.66;4114644;28;19972;-62
2022/08/30 08:24:24;;;;;;;20.63;4.20;;;;;;;22.98;40.11;100819.34;4104195;28;20047;-62
2022/08/30 08:26:26;;;;;;;15.73;4.93;;;;;;;23.14;39.60;100826.81;4108461;28;20039;-62
2022/08/30 08:28:29;;;;;;;14.52;3.95;;;;;;;23.10;39.91;100817.19;4114239;28;20070;-62
2022/08/30 08:30:35;;;;;;;22.15;4.63;;;;;;;23.37;39.91;100820.75;4114158;28;20053;-63
2022/08/30 08:32:39;;;;;;;20.02;4.43;;;;;;;23.32;39.52;100818.25;4114687;28;20073;-62
2022/08/30 08:34:44;;;;;;;14.25;4.90;;;;;;;23.34;39.90;100816.41;4113218;28;20050;-62
2022/08/30 08:36:48;;;;;;;13.48;4.32;;;;;;;23.32;39.88;100815.59;4106992;28;20113;-62
2022/08/30 08:38:51;;;;;;;16.60;4.65;;;;;;;23.40;39.53;100823.31;4112518;28;20035;-62
2022/08/30 08:41:03;;;;;;;18.38;4.20;;;;;;;23.39;39.88;100823.34;4114227;28;20050;-63
2022/08/30 08:43:11;;;;;;;12.00;4.68;;;;;;;23.58;39.06;100813.84;4110521;28;20038;-63
2022/08/30 08:45:23;;;;;;;15.93;4.57;;;;;;;23.64;38.46;100813.66;4109271;28;20039;-62
2022/08/30 08:47:37;;;;;;;10.77;3.47;;;;;;;23.42;39.28;100824.13;4111289;28;20043;-63
2022/08/30 08:49:44;;;;;;;20.80;5.07;;;;;;;23.40;39.77;100820.66;4111152;28;20035;-63
2022/08/30 08:54:13;;;;;;;17.27;4.30;;;;;;;23.48;39.46;100817.72;4115895;28;20047;-62
2022/08/30 08:56:18;;;;;;;26.33;6.10;;;;;;;23.62;39.69;100820.78;4117153;28;20038;-63
2022/08/30 08:58:24;;;;;;;19.10;4.38;;;;;;;23.62;39.66;100819.94;4113817;28;20507;-62
2022/08/30 09:00:28;;;;;;;19.25;4.18;;;;;;;23.79;39.57;100811.38;4115237;28;20559;-62
2022/08/30 09:02:39;;;;;;;22.38;5.10;;;;;;;23.84;38.96;100806.75;4117355;28;20043;-62
2022/08/30 09:04:43;;;;;;;13.75;3.92;;;;;;;23.86;39.25;100804.97;4110673;28;20081;-62
2022/08/30 09:06:53;;;;;;;9.85;3.63;;;;;;;23.84;39.18;100804.97;4111876;28;21090;-62
2022/08/30 09:08:57;;;;;;;9.38;3.88;;;;;;;23.78;39.72;100807.00;4113730;28;20048;-63
2022/08/30 09:11:03;;;;;;;18.58;4.65;;;;;;;23.93;39.28;100809.13;4112780;28;20042;-62
2022/08/30 09:13:06;;;;;;;12.55;4.35;;;;;;;23.99;39.37;100803.59;4112478;28;20070;-62
2022/08/30 09:15:23;;;;;;;16.60;4.55;;;;;;;24.05;38.85;100795.41;4114107;28;20047;-62
2022/08/30 09:17:27;;;;;;;13.88;3.92;;;;;;;24.03;38.96;100799.03;4111574;28;20046;-63
2022/08/30 09:19:42;;;;;;;7.90;3.20;;;;;;;24.13;38.88;100802.22;4109420;28;21058;-62
2022/08/30 09:21:45;;;;;;;14.57;3.72;;;;;;;24.36;38.21;100801.38;4112289;28;20034;-63
2022/08/30 09:23:54;;;;;;;14.10;4.07;;;;;;;24.47;37.68;100799.16;4114814;28;20038;-63
2022/08/30 09:25:59;;;;;;;12.80;4.97;;;;;;;24.53;37.43;100803.38;4113369;28;20392;-63
2022/08/30 09:28:10;;;;;;;12.35;4.18;;;;;;;24.41;37.67;100799.38;4115447;28;20043;-63
2022/08/30 09:30:17;;;;;;;11.35;3.92;;;;;;;24.28;37.26;100793.66;4115389;28;20035;-63
2022/08/30 09:32:29;;;;;;;9.82;4.43;;;;;;;24.19;38.13;100802.84;4112772;28;20528;-63
2022/08/30 09:34:33;;;;;;;11.07;3.90;;;;;;;24.18;38.52;100802.91;4113516;28;20138;-63
2022/08/30 09:36:42;;;;;;;18.77;3.35;;;;;;;24.26;38.55;100794.69;4112678;28;20226;-63
2022/08/30 09:38:45;;;;;;;12.43;3.10;;;;;;;24.44;37.57;100795.75;4112418;28;20046;-63
2022/08/30 09:40:51;;;;;;;11.00;3.28;;;;;;;24.61;37.46;100796.00;4113677;28;20070;-63
2022/08/30 09:43:06;;;;;;;8.60;3.30;;;;;;;24.74;36.63;100791.06;4114171;28;20470;-63
2022/08/30 09:45:20;;;;;;;12.17;3.40;;;;;;;24.84;37.01;100783.59;4097518;28;20063;-63